Time;durP1;ratioP1;P1;durP2;ratioP2;P2;SDS_P1;SDS_P2;PMS_P1;PMS_P2;Temp;Humidity;BMP_temperature;BMP_pressure;BME280_temperature;BME280_humidity;BME280_pressure;Samples;Min_cycle;Max_cycle;Signal;HPM_P1;HPM_P2
2023/08/17 00:00:03;;;;;;;3.30;1.60;;;;;;;;;;5066121;28;20028;-84
2023/08/17 00:02:29;;;;;;;3.78;1.90;;;;;;;;;;5060728;28;20017;-83
2023/08/17 00:04:54;;;;;;;3.88;1.60;;;;;;;;;;5059401;28;20489;-84
2023/08/17 00:07:20;;;;;;;2.78;1.55;;;;;;;;;;5061701;28;20059;-86
2023/08/17 00:09:45;;;;;;;3.42;1.52;;;;;;;;;;5057508;28;20101;-85
2023/08/17 00:12:16;;;;;;;3.92;1.67;;;;;;;;;;5075175;28;20606;-85
2023/08/17 00:14:41;;;;;;;5.53;1.80;;;;;;;;;;5074525;28;20679;-84
2023/08/17 00:17:10;;;;;;;2.80;1.95;;;;;;;;;;5057096;28;20501;-86
2023/08/17 00:19:35;;;;;;;2.72;1.63;;;;;;;;;;5055914;28;20020;-86
2023/08/17 00:22:05;;;;;;;4.43;2.05;;;;;;;;;;5074645;28;20052;-85
2023/08/17 00:24:30;;;;;;;3.88;1.90;;;;;;;;;;5056115;28;20062;-86
2023/08/17 00:26:55;;;;;;;3.63;1.80;;;;;;;;;;5056058;28;20017;-86
2023/08/17 00:29:21;;;;;;;3.45;1.88;;;;;;;;;;5056581;28;20128;-86
2023/08/17 00:31:51;;;;;;;2.95;1.80;;;;;;;;;;5074639;28;20008;-86
2023/08/17 00:34:16;;;;;;;4.03;1.80;;;;;;;;;;5056338;28;20021;-85
2023/08/17 00:36:41;;;;;;;3.40;1.90;;;;;;;;;;5075196;28;20027;-85
2023/08/17 00:39:09;;;;;;;11.88;1.80;;;;;;;;;;5069641;28;20115;-86
2023/08/17 00:41:35;;;;;;;3.83;2.20;;;;;;;;;;5068138;28;20050;-86
2023/08/17 00:44:00;;;;;;;3.53;2.42;;;;;;;;;;5072980;28;20040;-86
2023/08/17 00:46:29;;;;;;;5.63;1.80;;;;;;;;;;5081952;28;20096;-85
2023/08/17 00:48:58;;;;;;;4.72;2.22;;;;;;;;;;5072374;28;20036;-86
2023/08/17 00:51:24;;;;;;;4.20;2.08;;;;;;;;;;5055325;28;20024;-86
2023/08/17 00:53:53;;;;;;;4.65;2.28;;;;;;;;;;5085336;28;20160;-86
2023/08/17 00:56:19;;;;;;;4.03;2.00;;;;;;;;;;5056967;28;20020;-84
2023/08/17 00:58:46;;;;;;;8.23;1.95;;;;;;;;;;5066620;28;20241;-84
2023/08/17 01:01:13;;;;;;;5.45;1.95;;;;;;;;;;5055849;28;20583;-83
2023/08/17 01:03:40;;;;;;;3.58;1.95;;;;;;;;;;5060630;28;20359;-83
2023/08/17 01:06:06;;;;;;;2.80;1.92;;;;;;;;;;5071872;28;20016;-83
2023/08/17 01:08:38;;;;;;;6.93;2.03;;;;;;;;;;5082579;28;20129;-83
2023/08/17 01:11:16;;;;;;;8.43;2.25;;;;;;;;;;5068823;28;20103;-84
2023/08/17 01:13:49;;;;;;;3.85;2.00;;;;;;;;;;5077069;28;20033;-84
2023/08/17 01:16:21;;;;;;;3.60;1.95;;;;;;;;;;5090631;28;20159;-82
2023/08/17 01:18:47;;;;;;;4.10;2.08;;;;;;;;;;5084577;28;20034;-82
2023/08/17 01:21:14;;;;;;;3.85;1.70;;;;;;;;;;5067387;28;20022;-82
2023/08/17 01:23:39;;;;;;;8.85;3.38;;;;;;;;;;5075197;28;20016;-81
2023/08/17 01:26:08;;;;;;;7.38;2.63;;;;;;;;;;5079582;28;20446;-83
2023/08/17 01:28:33;;;;;;;7.25;2.28;;;;;;;;;;5075253;28;20019;-82
2023/08/17 01:31:02;;;;;;;4.18;2.00;;;;;;;;;;5077362;28;20016;-82
2023/08/17 01:33:45;;;;;;;5.20;2.58;;;;;;;;;;5057403;28;20029;-83
2023/08/17 01:36:33;;;;;;;5.65;1.98;;;;;;;;;;5093645;28;20431;-82
2023/08/17 01:38:59;;;;;;;6.60;2.05;;;;;;;;;;5065033;28;20020;-83
2023/08/17 01:41:28;;;;;;;3.35;1.73;;;;;;;;;;5076338;28;20016;-83
2023/08/17 01:43:54;;;;;;;3.90;1.95;;;;;;;;;;5057854;28;20412;-82
2023/08/17 01:46:19;;;;;;;2.38;1.77;;;;;;;;;;5065725;28;20027;-83
2023/08/17 01:48:45;;;;;;;3.88;2.05;;;;;;;;;;5087862;28;20108;-82
2023/08/17 01:51:11;;;;;;;3.63;1.98;;;;;;;;;;5071842;28;20518;-82
2023/08/17 01:53:37;;;;;;;2.83;1.75;;;;;;;;;;5085954;28;20053;-82
2023/08/17 01:56:05;;;;;;;6.05;1.70;;;;;;;;;;5061180;28;20103;-82
2023/08/17 01:58:30;;;;;;;4.07;1.98;;;;;;;;;;5072358;28;20383;-82
2023/08/17 02:00:55;;;;;;;6.10;2.25;;;;;;;;;;5054057;28;20024;-83
2023/08/17 02:03:21;;;;;;;3.95;2.05;;;;;;;;;;5057326;28;20027;-83
2023/08/17 02:05:46;;;;;;;5.28;2.30;;;;;;;;;;5082936;28;20020;-82
2023/08/17 02:08:12;;;;;;;4.65;2.13;;;;;;;;;;5072162;28;20016;-82
2023/08/17 02:10:37;;;;;;;6.25;2.05;;;;;;;;;;5092304;28;20044;-83
2023/08/17 02:13:03;;;;;;;3.20;2.08;;;;;;;;;;5064959;28;20096;-83
2023/08/17 02:15:31;;;;;;;5.15;2.17;;;;;;;;;;5074025;28;20024;-83
2023/08/17 02:17:56;;;;;;;3.30;1.98;;;;;;;;;;5073703;28;20069;-82
2023/08/17 02:20:22;;;;;;;3.40;2.33;;;;;;;;;;5074529;28;20440;-82
2023/08/17 02:22:56;;;;;;;8.23;2.20;;;;;;;;;;5081935;28;20123;-82
2023/08/17 02:25:21;;;;;;;10.32;2.50;;;;;;;;;;5080260;28;20039;-82
2023/08/17 02:27:47;;;;;;;4.50;1.83;;;;;;;;;;5092645;28;20483;-82
2023/08/17 02:30:13;;;;;;;2.63;1.90;;;;;;;;;;5075503;28;20024;-82
2023/08/17 02:32:39;;;;;;;4.25;1.90;;;;;;;;;;5073792;28;20367;-82
2023/08/17 02:35:04;;;;;;;4.10;1.98;;;;;;;;;;5066187;28;20020;-82
2023/08/17 02:37:30;;;;;;;8.93;2.22;;;;;;;;;;5099904;28;20020;-82
2023/08/17 02:40:01;;;;;;;7.65;2.10;;;;;;;;;;5080982;28;20032;-83
2023/08/17 02:42:29;;;;;;;3.42;1.95;;;;;;;;;;5087240;28;20293;-84
2023/08/17 02:44:57;;;;;;;9.10;2.17;;;;;;;;;;5080048;28;20016;-83
2023/08/17 02:47:23;;;;;;;4.80;1.90;;;;;;;;;;5075453;28;20020;-84
2023/08/17 02:49:49;;;;;;;5.03;1.90;;;;;;;;;;5084214;28;20319;-84
2023/08/17 02:52:14;;;;;;;4.43;2.20;;;;;;;;;;5073956;28;20012;-84
2023/08/17 02:54:40;;;;;;;4.10;2.10;;;;;;;;;;5063931;28;20016;-84
2023/08/17 02:57:05;;;;;;;2.90;1.85;;;;;;;;;;5060038;28;20042;-84
2023/08/17 02:59:31;;;;;;;3.65;1.90;;;;;;;;;;5062356;28;20020;-84
2023/08/17 03:01:57;;;;;;;4.07;1.92;;;;;;;;;;5059764;28;20017;-83
2023/08/17 03:04:22;;;;;;;4.68;2.20;;;;;;;;;;5073906;28;20020;-85
2023/08/17 03:06:48;;;;;;;6.05;1.83;;;;;;;;;;5062909;28;20037;-83
2023/08/17 03:09:13;;;;;;;3.45;1.80;;;;;;;;;;5071740;28;20016;-83
2023/08/17 03:11:38;;;;;;;11.80;2.00;;;;;;;;;;5073673;28;20119;-84
2023/08/17 03:14:04;;;;;;;5.28;1.85;;;;;;;;;;5091476;28;20012;-84
2023/08/17 03:16:32;;;;;;;2.90;1.63;;;;;;;;;;5083653;28;20028;-83
2023/08/17 03:19:00;;;;;;;5.03;2.17;;;;;;;;;;5064032;28;20035;-83
2023/08/17 03:21:26;;;;;;;5.25;2.10;;;;;;;;;;5070181;28;20020;-84
2023/08/17 03:23:54;;;;;;;4.88;2.65;;;;;;;;;;5053125;28;20013;-84
2023/08/17 03:26:19;;;;;;;5.78;2.40;;;;;;;;;;5062729;28;20020;-84
2023/08/17 03:28:45;;;;;;;2.85;2.00;;;;;;;;;;5059694;28;20107;-84
2023/08/17 03:31:10;;;;;;;7.38;1.77;;;;;;;;;;5072566;28;20081;-84
2023/08/17 03:33:36;;;;;;;3.15;1.90;;;;;;;;;;5067920;28;20021;-83
2023/08/17 03:36:01;;;;;;;4.18;2.10;;;;;;;;;;5079834;28;20085;-84
2023/08/17 03:38:29;;;;;;;2.63;1.70;;;;;;;;;;5057398;28;20023;-83
2023/08/17 03:40:55;;;;;;;3.03;1.83;;;;;;;;;;5072268;28;20360;-84
2023/08/17 03:43:20;;;;;;;2.80;1.63;;;;;;;;;;5071125;28;20066;-84
2023/08/17 03:45:46;;;;;;;7.63;1.90;;;;;;;;;;5067871;28;20134;-84
2023/08/17 03:48:12;;;;;;;5.47;1.90;;;;;;;;;;5074114;28;20027;-84
2023/08/17 03:50:37;;;;;;;2.60;1.73;;;;;;;;;;5071203;28;20368;-84
2023/08/17 03:53:03;;;;;;;3.45;1.58;;;;;;;;;;5062384;28;20032;-84
2023/08/17 03:55:28;;;;;;;4.85;2.08;;;;;;;;;;5071336;28;20028;-84
2023/08/17 03:57:54;;;;;;;5.47;1.67;;;;;;;;;;5063060;28;20129;-84
2023/08/17 04:00:19;;;;;;;3.58;1.52;;;;;;;;;;5061052;28;20101;-84
2023/08/17 04:02:45;;;;;;;3.70;1.80;;;;;;;;;;5099698;28;20012;-84
2023/08/17 04:05:10;;;;;;;4.20;1.55;;;;;;;;;;5079266;28;20023;-84
2023/08/17 04:07:37;;;;;;;5.32;1.65;;;;;;;;;;5077690;28;20009;-84
2023/08/17 04:10:03;;;;;;;5.90;2.13;;;;;;;;;;5082032;28;20146;-84
2023/08/17 04:12:28;;;;;;;1.95;1.40;;;;;;;;;;5083556;28;20600;-84
2023/08/17 04:14:54;;;;;;;3.45;1.98;;;;;;;;;;5061243;28;20069;-83
2023/08/17 04:17:20;;;;;;;13.55;1.58;;;;;;;;;;5076117;28;20040;-84
2023/08/17 04:19:54;;;;;;;5.53;1.80;;;;;;;;;;5073846;28;20013;-84
2023/08/17 04:22:20;;;;;;;1.90;1.30;;;;;;;;;;5066306;28;20032;-83
2023/08/17 04:24:45;;;;;;;3.40;1.73;;;;;;;;;;5072287;28;20039;-84
2023/08/17 04:27:12;;;;;;;3.70;1.60;;;;;;;;;;5087464;28;20029;-84
2023/08/17 04:29:38;;;;;;;3.20;1.63;;;;;;;;;;5056675;28;20021;-83
2023/08/17 04:32:05;;;;;;;3.65;1.75;;;;;;;;;;5076712;28;20448;-84
2023/08/17 04:34:31;;;;;;;3.75;1.48;;;;;;;;;;5068051;28;20024;-84
2023/08/17 04:36:56;;;;;;;3.53;1.77;;;;;;;;;;5062405;28;20412;-84
2023/08/17 04:39:21;;;;;;;4.25;2.00;;;;;;;;;;5076187;28;20016;-84
2023/08/17 04:41:47;;;;;;;5.93;2.10;;;;;;;;;;5080218;28;20095;-84
2023/08/17 04:44:13;;;;;;;4.28;1.85;;;;;;;;;;5066784;28;20073;-84
2023/08/17 04:46:38;;;;;;;3.38;1.63;;;;;;;;;;5075980;28;20028;-84
2023/08/17 04:49:03;;;;;;;6.15;1.80;;;;;;;;;;5075323;28;20116;-84
2023/08/17 04:51:30;;;;;;;4.20;1.60;;;;;;;;;;5075571;28;20024;-84
2023/08/17 04:53:55;;;;;;;4.88;1.77;;;;;;;;;;5054948;28;20024;-84
2023/08/17 04:56:20;;;;;;;3.80;1.50;;;;;;;;;;5055199;28;20175;-84
2023/08/17 04:58:46;;;;;;;2.97;1.52;;;;;;;;;;5074752;28;20124;-84
2023/08/17 05:01:11;;;;;;;2.90;1.75;;;;;;;;;;5067081;28;20031;-84
2023/08/17 05:03:36;;;;;;;11.90;2.20;;;;;;;;;;5054585;28;20039;-83
2023/08/17 05:06:03;;;;;;;3.45;1.52;;;;;;;;;;5075323;28;20016;-84
2023/08/17 05:08:28;;;;;;;3.85;1.90;;;;;;;;;;5074538;28;20023;-84
2023/08/17 05:10:53;;;;;;;8.77;1.90;;;;;;;;;;5073595;28;20020;-84
2023/08/17 05:13:21;;;;;;;3.33;1.60;;;;;;;;;;5070709;28;20052;-84
2023/08/17 05:15:47;;;;;;;3.30;1.63;;;;;;;;;;5071845;28;20042;-83
2023/08/17 05:18:12;;;;;;;5.15;1.85;;;;;;;;;;5060359;28;20511;-84
2023/08/17 05:20:38;;;;;;;5.97;2.00;;;;;;;;;;5077552;28;20146;-83
2023/08/17 05:23:07;;;;;;;5.05;1.52;;;;;;;;;;5063480;28;20020;-83
2023/08/17 05:25:36;;;;;;;5.63;1.90;;;;;;;;;;5080983;28;20013;-84
2023/08/17 05:28:01;;;;;;;2.42;1.60;;;;;;;;;;5074952;28;20131;-83
2023/08/17 05:30:27;;;;;;;2.67;1.52;;;;;;;;;;5060857;28;20028;-83
2023/08/17 05:32:52;;;;;;;4.20;1.67;;;;;;;;;;5067347;28;20028;-84
2023/08/17 05:35:18;;;;;;;4.65;1.75;;;;;;;;;;5065355;28;20532;-83
2023/08/17 05:37:43;;;;;;;3.83;1.98;;;;;;;;;;5099514;28;20016;-83
2023/08/17 05:40:09;;;;;;;3.42;1.65;;;;;;;;;;5062057;28;20021;-83
2023/08/17 05:42:34;;;;;;;3.35;1.85;;;;;;;;;;5056052;28;20525;-83
2023/08/17 05:45:00;;;;;;;4.97;1.83;;;;;;;;;;5069515;28;20488;-83
2023/08/17 05:47:25;;;;;;;8.18;1.73;;;;;;;;;;5058505;28;20029;-83
2023/08/17 05:49:50;;;;;;;8.18;1.58;;;;;;;;;;5055557;28;20536;-83
2023/08/17 05:52:16;;;;;;;3.67;1.63;;;;;;;;;;5050923;28;20025;-83
2023/08/17 05:54:42;;;;;;;3.47;1.88;;;;;;;;;;5082549;28;20028;-83
2023/08/17 05:57:08;;;;;;;7.10;2.00;;;;;;;;;;5075508;28;20016;-82
2023/08/17 05:59:33;;;;;;;6.15;2.22;;;;;;;;;;5075106;28;20086;-83
2023/08/17 06:01:58;;;;;;;4.75;1.95;;;;;;;;;;5078151;28;20052;-83
2023/08/17 06:04:24;;;;;;;3.95;1.70;;;;;;;;;;5056028;28;20021;-83
2023/08/17 06:06:49;;;;;;;5.53;1.55;;;;;;;;;;5055124;28;20031;-83
2023/08/17 06:09:15;;;;;;;7.43;1.80;;;;;;;;;;5055852;28;20111;-83
2023/08/17 06:11:40;;;;;;;4.60;1.90;;;;;;;;;;5078340;28;20068;-82
2023/08/17 06:14:06;;;;;;;6.03;2.08;;;;;;;;;;5062013;28;20024;-82
2023/08/17 06:16:36;;;;;;;3.03;1.60;;;;;;;;;;5075561;28;20043;-84
2023/08/17 06:19:02;;;;;;;3.85;1.95;;;;;;;;;;5071579;28;20458;-83
2023/08/17 06:21:27;;;;;;;4.72;1.80;;;;;;;;;;5054001;28;20016;-83
2023/08/17 06:23:53;;;;;;;3.47;1.70;;;;;;;;;;5067320;28;20020;-84
2023/08/17 06:26:20;;;;;;;2.92;1.70;;;;;;;;;;5068865;28;20018;-84
2023/08/17 06:28:48;;;;;;;4.30;1.90;;;;;;;;;;5054617;28;20411;-83
2023/08/17 06:31:16;;;;;;;13.35;2.05;;;;;;;;;;5082767;28;20030;-83
2023/08/17 06:33:42;;;;;;;2.33;1.50;;;;;;;;;;5054090;28;20663;-84
2023/08/17 06:36:07;;;;;;;5.15;1.77;;;;;;;;;;5055261;28;20016;-83
2023/08/17 06:38:33;;;;;;;5.47;2.08;;;;;;;;;;5085039;28;20099;-84
2023/08/17 06:41:01;;;;;;;4.13;1.58;;;;;;;;;;5054072;28;20028;-83
2023/08/17 06:43:27;;;;;;;2.40;1.45;;;;;;;;;;5072666;28;20438;-83
2023/08/17 06:45:53;;;;;;;4.25;1.60;;;;;;;;;;5068793;28;20065;-84
2023/08/17 06:48:22;;;;;;;6.85;1.98;;;;;;;;;;5073465;28;20028;-83
2023/08/17 06:50:51;;;;;;;4.28;1.83;;;;;;;;;;5101419;28;20066;-84
2023/08/17 06:53:16;;;;;;;4.13;1.92;;;;;;;;;;5069518;28;20031;-83
2023/08/17 06:55:42;;;;;;;4.38;1.80;;;;;;;;;;5080078;28;20025;-86
2023/08/17 06:58:13;;;;;;;4.38;1.52;;;;;;;;;;5070476;28;20035;-85
2023/08/17 07:00:43;;;;;;;6.83;2.37;;;;;;;;;;5076560;28;20078;-86
2023/08/17 07:03:13;;;;;;;7.28;1.65;;;;;;;;;;5064727;28;20066;-84
2023/08/17 07:05:38;;;;;;;3.92;1.75;;;;;;;;;;5066381;28;20090;-83
2023/08/17 07:08:04;;;;;;;6.82;1.70;;;;;;;;;;5065796;28;20024;-84
2023/08/17 07:10:37;;;;;;;7.22;1.80;;;;;;;;;;5073953;28;20494;-83
2023/08/17 07:13:03;;;;;;;6.18;2.22;;;;;;;;;;5079537;28;20012;-83
2023/08/17 07:15:29;;;;;;;3.88;1.73;;;;;;;;;;5064268;28;20078;-83
2023/08/17 07:17:54;;;;;;;4.20;1.83;;;;;;;;;;5072686;28;20035;-83
2023/08/17 07:20:20;;;;;;;6.38;2.00;;;;;;;;;;5062879;28;20012;-83
2023/08/17 07:22:45;;;;;;;2.17;1.77;;;;;;;;;;5076852;28;20028;-83
2023/08/17 07:25:10;;;;;;;5.45;2.13;;;;;;;;;;5096337;28;20012;-83
2023/08/17 07:27:35;;;;;;;4.68;1.83;;;;;;;;;;5059587;28;20021;-83
2023/08/17 07:30:01;;;;;;;4.45;2.00;;;;;;;;;;5058087;28;20016;-83
2023/08/17 07:32:26;;;;;;;3.85;2.00;;;;;;;;;;5058031;28;20040;-83
2023/08/17 07:34:54;;;;;;;5.63;2.20;;;;;;;;;;5073369;28;20023;-84
2023/08/17 07:37:19;;;;;;;5.40;1.80;;;;;;;;;;5070337;28;20166;-83
2023/08/17 07:39:45;;;;;;;5.38;2.30;;;;;;;;;;5075059;28;20115;-84
2023/08/17 07:42:10;;;;;;;4.93;1.92;;;;;;;;;;5074864;28;20024;-84
2023/08/17 07:44:35;;;;;;;6.07;2.35;;;;;;;;;;5074416;28;20017;-84
2023/08/17 07:47:01;;;;;;;4.57;2.42;;;;;;;;;;5053375;28;20017;-83
2023/08/17 07:49:28;;;;;;;5.78;2.20;;;;;;;;;;5052369;28;20021;-83
2023/08/17 07:51:56;;;;;;;7.53;2.53;;;;;;;;;;5056020;28;20020;-83
2023/08/17 07:54:25;;;;;;;8.52;2.38;;;;;;;;;;5070429;28;20039;-83
2023/08/17 07:56:50;;;;;;;4.68;2.50;;;;;;;;;;5076278;28;20020;-84
2023/08/17 07:59:16;;;;;;;4.60;2.70;;;;;;;;;;5076222;28;20391;-84
2023/08/17 08:01:42;;;;;;;6.22;2.83;;;;;;;;;;5082612;28;20493;-86
2023/08/17 08:04:07;;;;;;;3.08;2.00;;;;;;;;;;5079240;28;20032;-86
2023/08/17 08:06:33;;;;;;;5.57;2.70;;;;;;;;;;5067163;28;20071;-86
2023/08/17 08:08:59;;;;;;;4.18;2.22;;;;;;;;;;5074296;28;20028;-86
2023/08/17 08:11:27;;;;;;;9.77;2.80;;;;;;;;;;5064522;28;20045;-86
2023/08/17 08:13:55;;;;;;;6.15;2.53;;;;;;;;;;5072974;28;20092;-85
2023/08/17 08:16:26;;;;;;;7.80;3.05;;;;;;;;;;5088230;28;20032;-85
2023/08/17 08:18:53;;;;;;;6.10;3.10;;;;;;;;;;5089887;28;20137;-82
2023/08/17 08:21:19;;;;;;;5.45;2.45;;;;;;;;;;5086176;28;20047;-83
2023/08/17 08:23:44;;;;;;;5.80;2.92;;;;;;;;;;5108783;28;20012;-84
2023/08/17 08:26:17;;;;;;;4.97;2.88;;;;;;;;;;5091994;28;20098;-87
2023/08/17 08:28:42;;;;;;;;;;;;;;;;;;5093169;28;20024;-86
2023/08/17 08:31:13;;;;;;;9.50;4.40;;;;;;;;;;5083468;28;19931;-83
2023/08/17 08:33:38;;;;;;;8.90;3.92;;;;;;;;;;5052531;28;20075;-83
2023/08/17 08:36:27;;;;;;;6.32;3.60;;;;;;;;;;5065372;28;20025;-83
2023/08/17 08:38:53;;;;;;;6.15;3.65;;;;;;;;;;5058752;28;20211;-84
2023/08/17 08:41:22;;;;;;;7.35;3.33;;;;;;;;;;5064497;28;20115;-84
2023/08/17 08:43:47;;;;;;;8.57;4.68;;;;;;;;;;5086373;28;20522;-84
2023/08/17 08:46:13;;;;;;;13.00;4.75;;;;;;;;;;5053065;28;20051;-84
2023/08/17 08:48:39;;;;;;;13.00;4.25;;;;;;;;;;5072642;28;20020;-84
2023/08/17 08:51:07;;;;;;;7.70;4.55;;;;;;;;;;5075667;28;20027;-84
2023/08/17 08:53:43;;;;;;;10.00;4.32;;;;;;;;;;5058174;28;20116;-84
2023/08/17 08:56:11;;;;;;;12.15;4.65;;;;;;;;;;5057015;28;20020;-84
2023/08/17 08:58:37;;;;;;;14.88;5.68;;;;;;;;;;5070159;28;20031;-84
2023/08/17 09:01:02;;;;;;;9.13;4.47;;;;;;;;;;5076019;28;20028;-84
2023/08/17 09:03:28;;;;;;;12.80;4.65;;;;;;;;;;5058773;28;20020;-84
2023/08/17 09:05:55;;;;;;;9.38;4.88;;;;;;;;;;5086276;28;20082;-84
2023/08/17 09:08:27;;;;;;;7.90;5.32;;;;;;;;;;5055246;28;20131;-84
2023/08/17 09:10:52;;;;;;;9.00;4.28;;;;;;;;;;5084647;28;20029;-84
2023/08/17 09:13:17;;;;;;;12.52;4.72;;;;;;;;;;5073814;28;20012;-85
2023/08/17 09:15:43;;;;;;;10.18;5.13;;;;;;;;;;5062465;28;20020;-84
2023/08/17 09:18:08;;;;;;;9.45;4.70;;;;;;;;;;5086842;28;20044;-84
2023/08/17 09:20:41;;;;;;;10.15;5.63;;;;;;;;;;5073522;28;20043;-84
2023/08/17 09:23:17;;;;;;;11.95;5.38;;;;;;;;;;5054624;28;20071;-85
2023/08/17 09:25:43;;;;;;;11.80;5.85;;;;;;;;;;5064685;28;20386;-84
2023/08/17 09:28:09;;;;;;;15.93;5.13;;;;;;;;;;5061468;28;20031;-84
2023/08/17 09:30:53;;;;;;;10.02;5.50;;;;;;;;;;5092247;28;20027;-86
2023/08/17 09:33:26;;;;;;;9.23;5.32;;;;;;;;;;5068942;28;20051;-86
2023/08/17 09:35:52;;;;;;;10.65;4.97;;;;;;;;;;5042668;28;20321;-86
2023/08/17 09:38:21;;;;;;;11.73;5.53;;;;;;;;;;5090876;28;20463;-82
2023/08/17 09:40:48;;;;;;;12.38;6.35;;;;;;;;;;5083730;28;20368;-85
2023/08/17 09:43:15;;;;;;;11.05;6.55;;;;;;;;;;5069739;28;20020;-86
2023/08/17 09:45:49;;;;;;;13.48;5.72;;;;;;;;;;5098212;28;20024;-85
2023/08/17 09:48:24;;;;;;;9.63;5.82;;;;;;;;;;5068499;28;20027;-84
2023/08/17 09:50:50;;;;;;;13.90;6.07;;;;;;;;;;5072690;28;20689;-83
2023/08/17 09:53:21;;;;;;;11.20;6.03;;;;;;;;;;5053699;28;20024;-84
2023/08/17 09:55:47;;;;;;;13.23;6.28;;;;;;;;;;5071679;28;20035;-84
2023/08/17 09:58:15;;;;;;;12.40;7.00;;;;;;;;;;5086681;28;20024;-84
2023/08/17 10:00:50;;;;;;;13.40;6.47;;;;;;;;;;5075299;28;20385;-83
2023/08/17 10:03:16;;;;;;;15.73;8.55;;;;;;;;;;5069610;28;20336;-83
2023/08/17 10:05:47;;;;;;;17.65;8.10;;;;;;;;;;5057351;28;20012;-83
2023/08/17 10:08:15;;;;;;;17.80;7.53;;;;;;;;;;5041997;28;20066;-83
2023/08/17 10:10:42;;;;;;;14.02;6.45;;;;;;;;;;5072056;28;20365;-83
2023/08/17 10:13:14;;;;;;;14.70;6.50;;;;;;;;;;5069037;28;20020;-83
2023/08/17 10:15:39;;;;;;;;;;;;;;;;;;5055308;28;20024;-83
2023/08/17 10:18:05;;;;;;;12.93;6.75;;;;;;;;;;5068441;28;19958;-84
2023/08/17 10:20:31;;;;;;;14.27;7.15;;;;;;;;;;5085717;28;20470;-83
2023/08/17 10:23:03;;;;;;;15.52;7.53;;;;;;;;;;5056675;28;20414;-83
2023/08/17 10:25:28;;;;;;;11.45;5.60;;;;;;;;;;5072326;28;20352;-83
2023/08/17 10:27:54;;;;;;;12.40;5.95;;;;;;;;;;5088691;28;20027;-83
2023/08/17 10:30:19;;;;;;;15.13;7.22;;;;;;;;;;5074196;28;20073;-83
2023/08/17 10:32:46;;;;;;;11.95;6.65;;;;;;;;;;5073708;28;20183;-84
2023/08/17 10:35:12;;;;;;;14.13;6.45;;;;;;;;;;5067785;28;20158;-84
2023/08/17 10:37:38;;;;;;;11.65;5.57;;;;;;;;;;5065100;28;20020;-83
2023/08/17 10:40:04;;;;;;;7.47;4.80;;;;;;;;;;5055470;28;20025;-83
2023/08/17 10:42:31;;;;;;;9.52;6.18;;;;;;;;;;5081527;28;20052;-84
2023/08/17 10:44:56;;;;;;;11.23;5.18;;;;;;;;;;5071821;28;20020;-83
2023/08/17 10:47:23;;;;;;;10.27;5.43;;;;;;;;;;5053532;28;20020;-84
2023/08/17 10:49:58;;;;;;;9.32;4.70;;;;;;;;;;5053427;28;20067;-84
2023/08/17 10:52:30;;;;;;;12.70;5.45;;;;;;;;;;5035241;28;20376;-84
2023/08/17 10:54:56;;;;;;;11.18;4.85;;;;;;;;;;5063080;28;20012;-84
2023/08/17 10:57:25;;;;;;;13.90;5.55;;;;;;;;;;5073650;28;20017;-83
2023/08/17 11:00:16;;;;;;;12.18;5.40;;;;;;;;;;5058400;28;20021;-83
2023/08/17 11:02:52;;;;;;;12.43;5.72;;;;;;;;;;5064488;28;20028;-83
2023/08/17 11:05:38;;;;;;;13.32;6.50;;;;;;;;;;5081238;28;20031;-84
2023/08/17 11:08:08;;;;;;;12.88;6.78;;;;;;;;;;5047171;28;20023;-83
2023/08/17 11:10:34;;;;;;;18.45;8.88;;;;;;;;;;5077973;28;20391;-81
2023/08/17 11:13:01;;;;;;;17.30;8.40;;;;;;;;;;5077675;28;20012;-83
2023/08/17 11:15:35;;;;;;;21.80;8.23;;;;;;;;;;5086346;28;20017;-84
2023/08/17 11:18:00;;;;;;;18.70;7.32;;;;;;;;;;5082632;28;20471;-87
2023/08/17 11:20:37;;;;;;;12.73;7.15;;;;;;;;;;5070658;28;20122;-86
2023/08/17 11:23:11;;;;;;;14.48;6.88;;;;;;;;;;5099313;28;20012;-84
2023/08/17 11:25:37;;;;;;;14.10;8.43;;;;;;;;;;5076958;28;20028;-86
2023/08/17 11:28:03;;;;;;;13.23;7.78;;;;;;;;;;5061939;28;20055;-86
2023/08/17 11:30:33;;;;;;;17.00;8.93;;;;;;;;;;5077965;28;20040;-86
2023/08/17 11:32:59;;;;;;;18.33;10.45;;;;;;;;;;5092451;28;20016;-86
2023/08/17 11:35:28;;;;;;;15.23;8.25;;;;;;;;;;5071651;28;20021;-86
2023/08/17 11:37:53;;;;;;;19.63;9.20;;;;;;;;;;5057538;28;20085;-86
2023/08/17 11:40:19;;;;;;;14.82;8.57;;;;;;;;;;5076281;28;20016;-85
2023/08/17 11:42:45;;;;;;;20.92;10.73;;;;;;;;;;5076998;28;20077;-86
2023/08/17 11:45:10;;;;;;;15.30;8.68;;;;;;;;;;5060244;28;20070;-86
2023/08/17 11:47:38;;;;;;;14.48;7.53;;;;;;;;;;5055538;28;20020;-86
2023/08/17 11:50:04;;;;;;;14.52;7.93;;;;;;;;;;5086975;28;20024;-86
2023/08/17 11:52:32;;;;;;;16.48;8.98;;;;;;;;;;5073408;28;20017;-86
2023/08/17 11:54:58;;;;;;;19.00;9.70;;;;;;;;;;5075355;28;20465;-86
2023/08/17 11:57:23;;;;;;;22.05;10.45;;;;;;;;;;5079256;28;20161;-86
2023/08/17 11:59:52;;;;;;;13.40;8.30;;;;;;;;;;5064376;28;20475;-86
2023/08/17 12:02:17;;;;;;;17.90;8.15;;;;;;;;;;5086865;28;20012;-86
2023/08/17 12:04:43;;;;;;;20.90;9.43;;;;;;;;;;5064531;28;20382;-86
2023/08/17 12:07:09;;;;;;;15.95;8.60;;;;;;;;;;5074181;28;20020;-86
2023/08/17 12:09:34;;;;;;;15.90;8.02;;;;;;;;;;5079137;28;20019;-86
2023/08/17 12:12:00;;;;;;;18.48;8.88;;;;;;;;;;5062515;28;20051;-86
2023/08/17 12:14:26;;;;;;;15.48;8.43;;;;;;;;;;5073443;28;20020;-86
2023/08/17 12:16:52;;;;;;;15.63;8.60;;;;;;;;;;5072752;28;20086;-86
2023/08/17 12:19:20;;;;;;;16.75;9.60;;;;;;;;;;5056046;28;20028;-86
2023/08/17 12:21:45;;;;;;;18.15;8.20;;;;;;;;;;5062038;28;20431;-86
2023/08/17 12:24:14;;;;;;;26.33;10.98;;;;;;;;;;5073153;28;20073;-86
2023/08/17 12:26:49;;;;;;;14.43;8.15;;;;;;;;;;5074474;28;20020;-87
2023/08/17 12:29:14;;;;;;;15.35;7.50;;;;;;;;;;5072694;28;20016;-86
2023/08/17 12:31:42;;;;;;;14.77;7.72;;;;;;;;;;5059161;28;20100;-86
2023/08/17 12:34:07;;;;;;;15.25;9.05;;;;;;;;;;5065123;28;20095;-86
2023/08/17 12:36:37;;;;;;;13.52;7.82;;;;;;;;;;5066567;28;20052;-83
2023/08/17 12:39:03;;;;;;;12.63;6.50;;;;;;;;;;5077502;28;20028;-83
2023/08/17 12:41:29;;;;;;;15.77;7.47;;;;;;;;;;5065462;28;20028;-86
2023/08/17 12:43:58;;;;;;;14.30;7.07;;;;;;;;;;5062422;28;20016;-85
2023/08/17 12:46:23;;;;;;;13.57;7.60;;;;;;;;;;5070562;28;20016;-83
2023/08/17 12:48:49;;;;;;;15.95;7.45;;;;;;;;;;5065115;28;20021;-84
2023/08/17 12:51:15;;;;;;;14.35;6.82;;;;;;;;;;5068970;28;20472;-83
2023/08/17 12:53:41;;;;;;;19.65;7.07;;;;;;;;;;5059174;28;20507;-84
2023/08/17 12:56:06;;;;;;;14.82;6.82;;;;;;;;;;5089362;28;20119;-83
2023/08/17 12:58:32;;;;;;;13.93;6.93;;;;;;;;;;5083596;28;20020;-83
2023/08/17 13:00:57;;;;;;;12.00;6.05;;;;;;;;;;5079657;28;20028;-83
2023/08/17 13:03:23;;;;;;;13.48;5.90;;;;;;;;;;5075643;28;20047;-84
2023/08/17 13:05:51;;;;;;;16.40;6.65;;;;;;;;;;5062748;28;20019;-84
2023/08/17 13:08:16;;;;;;;15.82;7.32;;;;;;;;;;5090844;28;20047;-83
2023/08/17 13:10:47;;;;;;;14.30;7.47;;;;;;;;;;5074795;28;20420;-84
2023/08/17 13:13:12;;;;;;;16.05;6.65;;;;;;;;;;5059157;28;20592;-84
2023/08/17 13:15:37;;;;;;;15.95;7.80;;;;;;;;;;5063209;28;20111;-84
2023/08/17 13:18:03;;;;;;;17.38;7.72;;;;;;;;;;5054497;28;20114;-84
2023/08/17 13:20:28;;;;;;;14.23;6.22;;;;;;;;;;5072468;28;20023;-81
2023/08/17 13:22:53;;;;;;;14.75;6.63;;;;;;;;;;5055486;28;20024;-84
2023/08/17 13:25:19;;;;;;;14.70;7.38;;;;;;;;;;5075537;28;20040;-84
2023/08/17 13:28:02;;;;;;;11.80;6.32;;;;;;;;;;5075098;28;20518;-84
2023/08/17 13:30:28;;;;;;;16.80;7.22;;;;;;;;;;5061364;28;20500;-84
2023/08/17 13:32:56;;;;;;;19.65;7.70;;;;;;;;;;5068246;28;20028;-84
2023/08/17 13:35:21;;;;;;;13.85;8.20;;;;;;;;;;5071195;28;20107;-84
2023/08/17 13:37:50;;;;;;;17.25;8.23;;;;;;;;;;5072414;28;20097;-84
2023/08/17 13:40:16;;;;;;;14.90;7.10;;;;;;;;;;5074882;28;20356;-83
2023/08/17 13:42:41;;;;;;;14.68;7.22;;;;;;;;;;5072288;28;20020;-84
2023/08/17 13:45:07;;;;;;;14.90;6.45;;;;;;;;;;5081113;28;20184;-84
2023/08/17 13:47:33;;;;;;;14.68;7.40;;;;;;;;;;5062529;28;20019;-84
2023/08/17 13:50:03;;;;;;;12.88;6.68;;;;;;;;;;5079773;28;20016;-84
2023/08/17 13:52:29;;;;;;;13.80;7.05;;;;;;;;;;5082358;28;20035;-82
2023/08/17 13:54:54;;;;;;;14.85;6.35;;;;;;;;;;5067779;28;20024;-83
2023/08/17 13:57:20;;;;;;;11.65;6.10;;;;;;;;;;5049715;28;20038;-83
2023/08/17 13:59:46;;;;;;;12.40;6.30;;;;;;;;;;5071548;28;20185;-85
2023/08/17 14:02:12;;;;;;;16.70;7.75;;;;;;;;;;5078970;28;20027;-86
2023/08/17 14:04:37;;;;;;;13.25;6.93;;;;;;;;;;5090830;28;20075;-86
2023/08/17 14:07:04;;;;;;;16.05;7.13;;;;;;;;;;5085768;28;20016;-84
2023/08/17 14:09:33;;;;;;;14.00;7.10;;;;;;;;;;5070678;28;20021;-83
2023/08/17 14:11:59;;;;;;;13.40;6.88;;;;;;;;;;5073104;28;20016;-86
2023/08/17 14:14:33;;;;;;;10.68;6.30;;;;;;;;;;5100030;28;20020;-86
2023/08/17 14:16:59;;;;;;;16.58;6.80;;;;;;;;;;5083901;28;20051;-83
2023/08/17 14:19:24;;;;;;;15.43;7.47;;;;;;;;;;5083653;28;20117;-83
2023/08/17 14:21:52;;;;;;;12.15;6.68;;;;;;;;;;5078478;28;20020;-84
2023/08/17 14:24:17;;;;;;;13.15;6.72;;;;;;;;;;5061442;28;20044;-84
2023/08/17 14:26:43;;;;;;;14.18;6.93;;;;;;;;;;5058627;28;20089;-84
2023/08/17 14:29:08;;;;;;;16.85;7.50;;;;;;;;;;5063804;28;20012;-84
2023/08/17 14:31:33;;;;;;;13.25;7.30;;;;;;;;;;5055782;28;20025;-83
2023/08/17 14:33:59;;;;;;;16.15;7.13;;;;;;;;;;5069666;28;20383;-84
2023/08/17 14:36:24;;;;;;;14.13;7.07;;;;;;;;;;5087339;28;20069;-83